sensor_id;sensor_type;location;lat;lon;timestamp;pressure;altitude;pressure_sealevel;temperature;humidity
51926;BME280;37952;51.938;15.480;2023-03-04T00:00:59;99904.14;;;0.42;81.44
51926;BME280;37952;51.938;15.480;2023-03-04T00:04:02;99903.98;;;0.41;81.35
51926;BME280;37952;51.938;15.480;2023-03-04T00:07:05;99900.84;;;0.43;81.34
51926;BME280;37952;51.938;15.480;2023-03-04T00:10:09;99903.92;;;0.45;81.35
51926;BME280;37952;51.938;15.480;2023-03-04T00:13:12;99906.96;;;0.50;81.11
51926;BME280;37952;51.938;15.480;2023-03-04T00:16:15;99909.22;;;0.49;81.14
51926;BME280;37952;51.938;15.480;2023-03-04T00:19:18;99908.73;;;0.48;81.04
51926;BME280;37952;51.938;15.480;2023-03-04T00:27:17;99906.11;;;0.49;81.01
51926;BME280;37952;51.938;15.480;2023-03-04T00:35:37;99900.19;;;0.51;80.67
51926;BME280;37952;51.938;15.480;2023-03-04T00:38:40;99908.80;;;0.54;80.51
51926;BME280;37952;51.938;15.480;2023-03-04T00:41:43;99891.61;;;0.55;80.53
51926;BME280;37952;51.938;15.480;2023-03-04T00:44:46;99900.12;;;0.55;80.28
51926;BME280;37952;51.938;15.480;2023-03-04T00:48:07;99880.04;;;0.53;80.16
51926;BME280;37952;51.938;15.480;2023-03-04T00:51:10;99870.39;;;0.58;80.26
51926;BME280;37952;51.938;15.480;2023-03-04T00:54:13;99862.22;;;0.60;80.04
51926;BME280;37952;51.938;15.480;2023-03-04T00:57:16;99867.95;;;0.59;80.04
51926;BME280;37952;51.938;15.480;2023-03-04T01:00:19;99878.41;;;0.56;79.83
51926;BME280;37952;51.938;15.480;2023-03-04T01:03:22;99873.16;;;0.59;79.86
51926;BME280;37952;51.938;15.480;2023-03-04T01:06:26;99880.77;;;0.60;79.71
51926;BME280;37952;51.938;15.480;2023-03-04T01:09:29;99861.54;;;0.59;79.72
51926;BME280;37952;51.938;15.480;2023-03-04T01:13:07;99878.67;;;0.62;79.67
51926;BME280;37952;51.938;15.480;2023-03-04T01:16:10;99877.29;;;0.62;79.32
51926;BME280;37952;51.938;15.480;2023-03-04T01:19:15;99852.48;;;0.61;79.40
51926;BME280;37952;51.938;15.480;2023-03-04T01:22:21;99869.83;;;0.60;79.33
51926;BME280;37952;51.938;15.480;2023-03-04T01:25:24;99852.85;;;0.59;79.36
51926;BME280;37952;51.938;15.480;2023-03-04T01:28:56;99852.48;;;0.62;79.26
51926;BME280;37952;51.938;15.480;2023-03-04T01:31:59;99841.90;;;0.62;79.12
51926;BME280;37952;51.938;15.480;2023-03-04T01:35:04;99820.08;;;0.59;78.99
51926;BME280;37952;51.938;15.480;2023-03-04T01:38:08;99818.69;;;0.59;78.83
51926;BME280;37952;51.938;15.480;2023-03-04T01:41:12;99811.74;;;0.60;78.77
51926;BME280;37952;51.938;15.480;2023-03-04T01:44:16;99821.40;;;0.63;78.86
51926;BME280;37952;51.938;15.480;2023-03-04T01:51:32;99806.86;;;0.52;78.60
51926;BME280;37952;51.938;15.480;2023-03-04T01:54:39;99808.36;;;0.55;78.67
51926;BME280;37952;51.938;15.480;2023-03-04T01:57:52;99787.30;;;0.58;78.73
51926;BME280;37952;51.938;15.480;2023-03-04T02:00:56;99784.99;;;0.62;78.77
51926;BME280;37952;51.938;15.480;2023-03-04T02:03:59;99778.74;;;0.63;78.48
51926;BME280;37952;51.938;15.480;2023-03-04T02:07:03;99770.69;;;0.65;78.46
51926;BME280;37952;51.938;15.480;2023-03-04T02:10:07;99763.02;;;0.68;78.75
51926;BME280;37952;51.938;15.480;2023-03-04T02:13:14;99760.21;;;0.69;78.40
51926;BME280;37952;51.938;15.480;2023-03-04T02:16:18;99763.13;;;0.72;78.60
51926;BME280;37952;51.938;15.480;2023-03-04T02:22:30;99760.08;;;0.76;78.17
51926;BME280;37952;51.938;15.480;2023-03-04T02:29:01;99727.77;;;0.77;78.32
51926;BME280;37952;51.938;15.480;2023-03-04T02:32:04;99721.80;;;0.82;78.28
51926;BME280;37952;51.938;15.480;2023-03-04T02:35:15;99709.83;;;0.81;78.33
51926;BME280;37952;51.938;15.480;2023-03-04T02:38:18;99717.48;;;0.81;78.09
51926;BME280;37952;51.938;15.480;2023-03-04T02:41:24;99721.80;;;0.82;78.44
51926;BME280;37952;51.938;15.480;2023-03-04T02:44:34;99722.09;;;0.85;78.34
51926;BME280;37952;51.938;15.480;2023-03-04T02:47:37;99723.92;;;0.88;78.40
51926;BME280;37952;51.938;15.480;2023-03-04T02:50:47;99723.29;;;0.85;78.32
51926;BME280;37952;51.938;15.480;2023-03-04T02:53:50;99726.58;;;0.86;78.05
51926;BME280;37952;51.938;15.480;2023-03-04T02:56:57;99717.56;;;0.85;78.21
51926;BME280;37952;51.938;15.480;2023-03-04T03:00:00;99723.02;;;0.90;78.14
51926;BME280;37952;51.938;15.480;2023-03-04T03:03:04;99715.22;;;0.89;78.25
51926;BME280;37952;51.938;15.480;2023-03-04T03:06:07;99708.05;;;0.92;78.17
51926;BME280;37952;51.938;15.480;2023-03-04T03:09:10;99718.13;;;0.91;78.21
51926;BME280;37952;51.938;15.480;2023-03-04T03:12:13;99709.95;;;0.92;78.18
51926;BME280;37952;51.938;15.480;2023-03-04T03:15:16;99712.45;;;0.89;78.17
51926;BME280;37952;51.938;15.480;2023-03-04T03:18:36;99720.44;;;0.89;78.16
51926;BME280;37952;51.938;15.480;2023-03-04T03:21:38;99722.85;;;0.90;78.14
51926;BME280;37952;51.938;15.480;2023-03-04T03:24:43;99711.70;;;0.92;78.21
51926;BME280;37952;51.938;15.480;2023-03-04T03:27:45;99713.08;;;0.92;78.19
51926;BME280;37952;51.938;15.480;2023-03-04T03:30:48;99714.45;;;0.93;78.12
51926;BME280;37952;51.938;15.480;2023-03-04T03:33:51;99705.36;;;0.95;78.21
51926;BME280;37952;51.938;15.480;2023-03-04T03:36:54;99689.76;;;0.95;78.09
51926;BME280;37952;51.938;15.480;2023-03-04T03:39:57;99704.84;;;0.96;77.95
51926;BME280;37952;51.938;15.480;2023-03-04T03:43:00;99702.24;;;0.95;77.96
51926;BME280;37952;51.938;15.480;2023-03-04T03:46:03;99700.61;;;0.98;77.88
51926;BME280;37952;51.938;15.480;2023-03-04T03:49:06;99689.86;;;0.98;77.85
51926;BME280;37952;51.938;15.480;2023-03-04T03:52:09;99681.90;;;0.97;77.77
51926;BME280;37952;51.938;15.480;2023-03-04T03:55:13;99686.09;;;0.96;77.42
51926;BME280;37952;51.938;15.480;2023-03-04T03:58:16;99678.77;;;0.97;77.46
51926;BME280;37952;51.938;15.480;2023-03-04T04:01:19;99673.38;;;0.98;77.49
51926;BME280;37952;51.938;15.480;2023-03-04T04:04:22;99680.15;;;0.98;77.34
51926;BME280;37952;51.938;15.480;2023-03-04T04:07:25;99682.66;;;0.94;77.70
51926;BME280;37952;51.938;15.480;2023-03-04T04:10:28;99669.10;;;0.88;77.24
51926;BME280;37952;51.938;15.480;2023-03-04T04:13:31;99674.04;;;0.92;77.41
51926;BME280;37952;51.938;15.480;2023-03-04T04:16:48;99680.33;;;0.90;77.26
51926;BME280;37952;51.938;15.480;2023-03-04T04:19:51;99675.29;;;0.90;77.24
51926;BME280;37952;51.938;15.480;2023-03-04T04:22:54;99681.18;;;0.90;77.30
51926;BME280;37952;51.938;15.480;2023-03-04T04:25:57;99685.85;;;0.91;77.35
51926;BME280;37952;51.938;15.480;2023-03-04T04:29:00;99687.42;;;0.90;77.26
51926;BME280;37952;51.938;15.480;2023-03-04T04:32:22;99682.20;;;0.92;77.26
51926;BME280;37952;51.938;15.480;2023-03-04T04:35:25;99683.70;;;0.94;77.29
51926;BME280;37952;51.938;15.480;2023-03-04T04:38:28;99680.88;;;0.96;77.31
51926;BME280;37952;51.938;15.480;2023-03-04T04:41:36;99679.52;;;0.95;77.34
51926;BME280;37952;51.938;15.480;2023-03-04T04:44:39;99695.02;;;0.93;77.26
51926;BME280;37952;51.938;15.480;2023-03-04T04:47:42;99684.59;;;0.93;77.35
51926;BME280;37952;51.938;15.480;2023-03-04T04:50:45;99684.23;;;0.94;77.33
51926;BME280;37952;51.938;15.480;2023-03-04T04:53:48;99676.27;;;0.92;77.37
51926;BME280;37952;51.938;15.480;2023-03-04T04:56:52;99670.02;;;0.92;77.29
51926;BME280;37952;51.938;15.480;2023-03-04T04:59:55;99678.86;;;0.94;77.62
51926;BME280;37952;51.938;15.480;2023-03-04T05:02:57;99677.13;;;0.93;77.70
51926;BME280;37952;51.938;15.480;2023-03-04T05:06:02;99670.95;;;0.90;77.85
51926;BME280;37952;51.938;15.480;2023-03-04T05:09:05;99670.61;;;0.89;77.97
51926;BME280;37952;51.938;15.480;2023-03-04T05:12:08;99669.05;;;0.90;78.05
51926;BME280;37952;51.938;15.480;2023-03-04T05:15:11;99665.89;;;0.91;78.17
51926;BME280;37952;51.938;15.480;2023-03-04T05:18:14;99663.67;;;0.90;78.48
51926;BME280;37952;51.938;15.480;2023-03-04T05:21:17;99662.44;;;0.90;78.39
51926;BME280;37952;51.938;15.480;2023-03-04T05:24:20;99663.07;;;0.93;78.44
51926;BME280;37952;51.938;15.480;2023-03-04T05:27:23;99661.83;;;0.94;78.53
51926;BME280;37952;51.938;15.480;2023-03-04T05:30:51;99659.20;;;0.96;78.46
51926;BME280;37952;51.938;15.480;2023-03-04T05:33:54;99655.02;;;0.96;78.51
51926;BME280;37952;51.938;15.480;2023-03-04T05:36:57;99660.42;;;0.95;78.61
51926;BME280;37952;51.938;15.480;2023-03-04T05:40:00;99658.84;;;0.96;78.49
51926;BME280;37952;51.938;15.480;2023-03-04T05:43:03;99655.36;;;0.96;78.71
51926;BME280;37952;51.938;15.480;2023-03-04T05:46:07;99660.41;;;0.96;78.67
51926;BME280;37952;51.938;15.480;2023-03-04T05:49:10;99647.39;;;0.96;79.10
51926;BME280;37952;51.938;15.480;2023-03-04T05:52:13;99645.59;;;0.98;79.19
51926;BME280;37952;51.938;15.480;2023-03-04T05:55:16;99646.08;;;1.01;79.14
51926;BME280;37952;51.938;15.480;2023-03-04T05:58:20;99647.97;;;1.01;79.06
51926;BME280;37952;51.938;15.480;2023-03-04T06:01:23;99654.55;;;1.02;79.43
51926;BME280;37952;51.938;15.480;2023-03-04T06:04:26;99642.52;;;1.04;79.25
51926;BME280;37952;51.938;15.480;2023-03-04T06:07:29;99647.50;;;1.07;79.18
51926;BME280;37952;51.938;15.480;2023-03-04T06:10:57;99648.88;;;1.07;79.29
51926;BME280;37952;51.938;15.480;2023-03-04T06:14:00;99652.34;;;1.07;79.48
51926;BME280;37952;51.938;15.480;2023-03-04T06:17:05;99639.11;;;1.09;79.54
51926;BME280;37952;51.938;15.480;2023-03-04T06:20:10;99640.67;;;1.08;79.58
51926;BME280;37952;51.938;15.480;2023-03-04T06:23:13;99635.99;;;1.08;79.69
51926;BME280;37952;51.938;15.480;2023-03-04T06:26:16;99648.42;;;1.11;79.54
51926;BME280;37952;51.938;15.480;2023-03-04T06:29:19;99648.39;;;1.13;79.82
51926;BME280;37952;51.938;15.480;2023-03-04T06:32:23;99649.79;;;1.13;80.00
51926;BME280;37952;51.938;15.480;2023-03-04T06:35:28;99643.06;;;1.11;79.98
51926;BME280;37952;51.938;15.480;2023-03-04T06:38:33;99642.11;;;1.14;80.17
51926;BME280;37952;51.938;15.480;2023-03-04T06:41:36;99652.80;;;1.18;80.22
51926;BME280;37952;51.938;15.480;2023-03-04T06:44:39;99654.83;;;1.19;80.28
51926;BME280;37952;51.938;15.480;2023-03-04T06:47:42;99657.42;;;1.20;80.22
51926;BME280;37952;51.938;15.480;2023-03-04T06:50:46;99661.89;;;1.22;80.27
51926;BME280;37952;51.938;15.480;2023-03-04T06:53:49;99666.47;;;1.27;80.30
51926;BME280;37952;51.938;15.480;2023-03-04T06:56:52;99659.97;;;1.30;80.37
51926;BME280;37952;51.938;15.480;2023-03-04T06:59:55;99661.70;;;1.30;80.17
51926;BME280;37952;51.938;15.480;2023-03-04T07:02:58;99655.58;;;1.32;80.22
51926;BME280;37952;51.938;15.480;2023-03-04T07:06:01;99652.89;;;1.35;80.45
51926;BME280;37952;51.938;15.480;2023-03-04T07:09:05;99655.08;;;1.38;80.10
51926;BME280;37952;51.938;15.480;2023-03-04T07:12:07;99657.11;;;1.41;80.23
51926;BME280;37952;51.938;15.480;2023-03-04T07:15:10;99660.69;;;1.44;80.28
51926;BME280;37952;51.938;15.480;2023-03-04T07:18:13;99655.15;;;1.50;80.38
51926;BME280;37952;51.938;15.480;2023-03-04T07:21:17;99651.99;;;1.51;80.32
51926;BME280;37952;51.938;15.480;2023-03-04T07:24:19;99654.02;;;1.54;80.52
51926;BME280;37952;51.938;15.480;2023-03-04T07:27:22;99646.59;;;1.58;80.47
51926;BME280;37952;51.938;15.480;2023-03-04T07:30:26;99642.41;;;1.66;80.42
51926;BME280;37952;51.938;15.480;2023-03-04T07:33:29;99650.59;;;1.72;80.18
51926;BME280;37952;51.938;15.480;2023-03-04T07:36:34;99646.34;;;1.76;80.26
51926;BME280;37952;51.938;15.480;2023-03-04T07:39:37;99650.09;;;1.78;80.28
51926;BME280;37952;51.938;15.480;2023-03-04T07:42:40;99652.82;;;1.80;80.31
51926;BME280;37952;51.938;15.480;2023-03-04T07:45:43;99647.22;;;1.81;80.32
51926;BME280;37952;51.938;15.480;2023-03-04T07:48:45;99658.33;;;1.82;80.22
51926;BME280;37952;51.938;15.480;2023-03-04T07:51:48;99645.56;;;1.85;80.22
51926;BME280;37952;51.938;15.480;2023-03-04T07:54:51;99648.63;;;1.88;80.19
51926;BME280;37952;51.938;15.480;2023-03-04T07:57:54;99640.80;;;1.88;80.22
51926;BME280;37952;51.938;15.480;2023-03-04T08:00:57;99648.88;;;1.91;80.06
51926;BME280;37952;51.938;15.480;2023-03-04T08:04:02;99658.39;;;1.93;80.24
51926;BME280;37952;51.938;15.480;2023-03-04T08:07:05;99642.71;;;1.94;80.46
51926;BME280;37952;51.938;15.480;2023-03-04T08:10:09;99638.86;;;1.95;80.51
51926;BME280;37952;51.938;15.480;2023-03-04T08:13:12;99639.95;;;2.00;80.29
51926;BME280;37952;51.938;15.480;2023-03-04T08:16:17;99640.67;;;2.05;80.50
51926;BME280;37952;51.938;15.480;2023-03-04T08:19:21;99645.50;;;2.07;80.61
51926;BME280;37952;51.938;15.480;2023-03-04T08:22:26;99647.17;;;2.09;80.59
51926;BME280;37952;51.938;15.480;2023-03-04T08:25:28;99643.17;;;2.16;80.69
51926;BME280;37952;51.938;15.480;2023-03-04T08:28:31;99646.88;;;2.20;80.78
51926;BME280;37952;51.938;15.480;2023-03-04T08:31:34;99636.59;;;2.27;80.78
51926;BME280;37952;51.938;15.480;2023-03-04T08:34:38;99635.40;;;2.32;80.82
51926;BME280;37952;51.938;15.480;2023-03-04T08:37:42;99635.86;;;2.35;80.84
51926;BME280;37952;51.938;15.480;2023-03-04T08:40:45;99640.45;;;2.39;80.93
51926;BME280;37952;51.938;15.480;2023-03-04T08:43:47;99646.35;;;2.45;80.88
51926;BME280;37952;51.938;15.480;2023-03-04T08:46:50;99642.52;;;2.45;80.89
51926;BME280;37952;51.938;15.480;2023-03-04T08:49:53;99642.91;;;2.50;80.89
51926;BME280;37952;51.938;15.480;2023-03-04T08:52:57;99639.70;;;2.52;81.02
51926;BME280;37952;51.938;15.480;2023-03-04T08:56:04;99631.10;;;2.61;80.88
51926;BME280;37952;51.938;15.480;2023-03-04T08:59:07;99637.83;;;2.63;80.92
51926;BME280;37952;51.938;15.480;2023-03-04T09:02:10;99634.21;;;2.62;81.17
51926;BME280;37952;51.938;15.480;2023-03-04T09:05:13;99639.50;;;2.66;81.30
51926;BME280;37952;51.938;15.480;2023-03-04T09:08:17;99636.34;;;2.66;81.31
51926;BME280;37952;51.938;15.480;2023-03-04T09:11:20;99632.86;;;2.66;81.33
51926;BME280;37952;51.938;15.480;2023-03-04T09:14:23;99638.78;;;2.66;81.45
51926;BME280;37952;51.938;15.480;2023-03-04T09:17:26;99629.10;;;2.70;81.50
51926;BME280;37952;51.938;15.480;2023-03-04T09:20:30;99637.38;;;2.73;81.54
51926;BME280;37952;51.938;15.480;2023-03-04T09:23:34;99633.23;;;2.72;81.51
51926;BME280;37952;51.938;15.480;2023-03-04T09:26:38;99619.44;;;2.67;81.50
51926;BME280;37952;51.938;15.480;2023-03-04T09:29:41;99625.10;;;2.76;81.48
51926;BME280;37952;51.938;15.480;2023-03-04T09:32:46;99623.96;;;2.84;81.40
51926;BME280;37952;51.938;15.480;2023-03-04T09:35:48;99623.59;;;2.91;81.47
51926;BME280;37952;51.938;15.480;2023-03-04T09:38:52;99614.56;;;2.95;81.46
51926;BME280;37952;51.938;15.480;2023-03-04T09:41:57;99620.89;;;3.00;81.33
51926;BME280;37952;51.938;15.480;2023-03-04T09:45:01;99615.95;;;2.96;81.39
51926;BME280;37952;51.938;15.480;2023-03-04T09:48:05;99613.55;;;2.89;81.28
51926;BME280;37952;51.938;15.480;2023-03-04T09:54:30;99616.14;;;2.84;81.43
51926;BME280;37952;51.938;15.480;2023-03-04T09:57:56;99612.88;;;2.82;81.46
51926;BME280;37952;51.938;15.480;2023-03-04T10:01:24;99606.30;;;2.87;81.52
51926;BME280;37952;51.938;15.480;2023-03-04T10:04:47;99608.55;;;2.93;81.57
51926;BME280;37952;51.938;15.480;2023-03-04T10:07:57;99603.51;;;2.93;81.65
51926;BME280;37952;51.938;15.480;2023-03-04T10:11:01;99597.80;;;2.91;81.61
51926;BME280;37952;51.938;15.480;2023-03-04T10:17:33;99601.73;;;2.83;81.71
51926;BME280;37952;51.938;15.480;2023-03-04T10:24:15;99607.41;;;2.91;81.99
51926;BME280;37952;51.938;15.480;2023-03-04T10:27:19;99607.99;;;2.89;82.05
51926;BME280;37952;51.938;15.480;2023-03-04T10:31:08;99605.34;;;2.90;82.27
51926;BME280;37952;51.938;15.480;2023-03-04T10:34:08;99605.09;;;2.98;82.40
51926;BME280;37952;51.938;15.480;2023-03-04T10:37:12;99601.94;;;3.10;82.40
51926;BME280;37952;51.938;15.480;2023-03-04T10:40:18;99595.58;;;3.17;82.48
51926;BME280;37952;51.938;15.480;2023-03-04T10:43:21;99591.05;;;3.28;82.35
51926;BME280;37952;51.938;15.480;2023-03-04T10:46:25;99585.50;;;3.38;82.32
51926;BME280;37952;51.938;15.480;2023-03-04T10:49:28;99581.23;;;3.41;82.28
51926;BME280;37952;51.938;15.480;2023-03-04T10:52:37;99579.76;;;3.43;82.01
51926;BME280;37952;51.938;15.480;2023-03-04T10:55:43;99577.34;;;3.37;81.98
51926;BME280;37952;51.938;15.480;2023-03-04T10:58:46;99578.59;;;3.41;81.91
51926;BME280;37952;51.938;15.480;2023-03-04T11:01:51;99578.16;;;3.49;82.02
51926;BME280;37952;51.938;15.480;2023-03-04T11:08:22;99578.16;;;3.65;81.87
51926;BME280;37952;51.938;15.480;2023-03-04T11:11:31;99570.70;;;3.78;81.68
51926;BME280;37952;51.938;15.480;2023-03-04T11:14:44;99566.98;;;3.89;81.61
51926;BME280;37952;51.938;15.480;2023-03-04T11:17:51;99563.11;;;3.96;81.39
51926;BME280;37952;51.938;15.480;2023-03-04T11:20:56;99555.92;;;4.01;81.04
51926;BME280;37952;51.938;15.480;2023-03-04T11:24:03;99555.23;;;4.01;80.98
51926;BME280;37952;51.938;15.480;2023-03-04T11:27:17;99551.86;;;4.08;80.87
51926;BME280;37952;51.938;15.480;2023-03-04T11:30:37;99548.31;;;4.14;80.73
51926;BME280;37952;51.938;15.480;2023-03-04T11:37:34;99547.13;;;4.27;80.28
51926;BME280;37952;51.938;15.480;2023-03-04T11:40:42;99545.41;;;4.31;80.11
51926;BME280;37952;51.938;15.480;2023-03-04T11:43:48;99550.07;;;4.28;79.80
51926;BME280;37952;51.938;15.480;2023-03-04T11:56:42;99554.02;;;4.06;79.58
51926;BME280;37952;51.938;15.480;2023-03-04T12:24:28;99555.86;;;4.32;78.60
51926;BME280;37952;51.938;15.480;2023-03-04T12:34:30;99546.95;;;4.68;77.14
51926;BME280;37952;51.938;15.480;2023-03-04T12:37:45;99540.26;;;4.78;76.60
51926;BME280;37952;51.938;15.480;2023-03-04T12:40:56;99546.85;;;4.75;75.89
51926;BME280;37952;51.938;15.480;2023-03-04T12:47:39;99542.14;;;4.66;75.75
51926;BME280;37952;51.938;15.480;2023-03-04T12:54:12;99551.09;;;4.65;75.72
51926;BME280;37952;51.938;15.480;2023-03-04T12:57:23;99547.91;;;4.66;75.50
51926;BME280;37952;51.938;15.480;2023-03-04T13:10:21;99540.95;;;4.70;75.53
51926;BME280;37952;51.938;15.480;2023-03-04T13:19:49;99541.73;;;4.63;75.10
51926;BME280;37952;51.938;15.480;2023-03-04T13:26:17;99541.71;;;4.64;75.34
51926;BME280;37952;51.938;15.480;2023-03-04T13:32:37;99547.02;;;4.75;75.08
51926;BME280;37952;51.938;15.480;2023-03-04T13:39:21;99544.85;;;4.64;73.52
51926;BME280;37952;51.938;15.480;2023-03-04T13:42:41;99535.10;;;4.63;72.88
51926;BME280;37952;51.938;15.480;2023-03-04T13:45:47;99532.63;;;4.73;72.38
51926;BME280;37952;51.938;15.480;2023-03-04T13:55:40;99538.25;;;5.02;70.06
51926;BME280;37952;51.938;15.480;2023-03-04T13:58:45;99539.30;;;5.06;70.11
51926;BME280;37952;51.938;15.480;2023-03-04T14:01:57;99530.80;;;5.06;69.47
51926;BME280;37952;51.938;15.480;2023-03-04T14:13:16;99530.09;;;4.97;67.23
51926;BME280;37952;51.938;15.480;2023-03-04T14:17:14;99524.38;;;4.96;67.62
51926;BME280;37952;51.938;15.480;2023-03-04T14:20:28;99519.34;;;4.87;66.02
51926;BME280;37952;51.938;15.480;2023-03-04T14:23:34;99522.29;;;4.87;66.72
51926;BME280;37952;51.938;15.480;2023-03-04T14:26:37;99514.55;;;4.84;66.03
51926;BME280;37952;51.938;15.480;2023-03-04T14:29:40;99527.20;;;4.82;65.79
51926;BME280;37952;51.938;15.480;2023-03-04T14:32:44;99527.73;;;4.77;65.25
51926;BME280;37952;51.938;15.480;2023-03-04T14:36:00;99519.73;;;4.81;66.29
51926;BME280;37952;51.938;15.480;2023-03-04T14:39:05;99524.61;;;4.77;64.72
51926;BME280;37952;51.938;15.480;2023-03-04T14:42:11;99514.14;;;4.72;64.95
51926;BME280;37952;51.938;15.480;2023-03-04T14:50:18;99514.40;;;4.70;65.37
51926;BME280;37952;51.938;15.480;2023-03-04T14:57:30;99523.23;;;4.68;64.78
51926;BME280;37952;51.938;15.480;2023-03-04T15:00:37;99523.64;;;4.66;64.10
51926;BME280;37952;51.938;15.480;2023-03-04T15:04:09;99522.48;;;4.60;63.76
51926;BME280;37952;51.938;15.480;2023-03-04T15:12:26;99521.30;;;4.50;64.36
51926;BME280;37952;51.938;15.480;2023-03-04T15:15:41;99519.48;;;4.47;64.21
51926;BME280;37952;51.938;15.480;2023-03-04T15:19:02;99518.58;;;4.44;64.23
51926;BME280;37952;51.938;15.480;2023-03-04T15:22:07;99531.34;;;4.38;62.99
51926;BME280;37952;51.938;15.480;2023-03-04T15:25:11;99525.55;;;4.39;64.48
51926;BME280;37952;51.938;15.480;2023-03-04T15:28:17;99526.63;;;4.39;64.23
51926;BME280;37952;51.938;15.480;2023-03-04T15:31:22;99516.11;;;4.35;64.47
51926;BME280;37952;51.938;15.480;2023-03-04T15:34:26;99523.55;;;4.32;64.17
51926;BME280;37952;51.938;15.480;2023-03-04T15:37:29;99518.36;;;4.32;64.44
51926;BME280;37952;51.938;15.480;2023-03-04T15:45:24;99505.52;;;4.29;64.61
51926;BME280;37952;51.938;15.480;2023-03-04T15:48:54;99517.19;;;4.30;64.14
51926;BME280;37952;51.938;15.480;2023-03-04T15:51:57;99518.88;;;4.27;63.82
51926;BME280;37952;51.938;15.480;2023-03-04T15:55:00;99528.48;;;4.26;64.16
51926;BME280;37952;51.938;15.480;2023-03-04T15:58:03;99525.14;;;4.23;64.00
51926;BME280;37952;51.938;15.480;2023-03-04T16:01:10;99526.02;;;4.22;64.47
51926;BME280;37952;51.938;15.480;2023-03-04T16:04:16;99526.36;;;4.18;64.22
51926;BME280;37952;51.938;15.480;2023-03-04T16:07:23;99530.58;;;4.17;64.43
51926;BME280;37952;51.938;15.480;2023-03-04T16:15:17;99540.60;;;4.20;64.99
51926;BME280;37952;51.938;15.480;2023-03-04T16:18:21;99536.96;;;4.19;64.53
51926;BME280;37952;51.938;15.480;2023-03-04T16:25:24;99544.61;;;4.15;64.53
51926;BME280;37952;51.938;15.480;2023-03-04T16:28:28;99535.48;;;4.12;64.48
51926;BME280;37952;51.938;15.480;2023-03-04T16:31:30;99539.45;;;4.13;65.24
51926;BME280;37952;51.938;15.480;2023-03-04T16:34:34;99541.53;;;4.14;65.10
51926;BME280;37952;51.938;15.480;2023-03-04T16:37:37;99541.88;;;4.13;65.22
51926;BME280;37952;51.938;15.480;2023-03-04T16:41:18;99542.59;;;4.13;65.40
51926;BME280;37952;51.938;15.480;2023-03-04T16:44:22;99549.20;;;4.09;65.27
51926;BME280;37952;51.938;15.480;2023-03-04T16:56:32;99561.05;;;3.99;65.21
51926;BME280;37952;51.938;15.480;2023-03-04T16:59:35;99553.18;;;4.00;65.72
51926;BME280;37952;51.938;15.480;2023-03-04T17:02:39;99559.39;;;4.02;65.69
51926;BME280;37952;51.938;15.480;2023-03-04T17:05:42;99567.42;;;4.02;65.49
51926;BME280;37952;51.938;15.480;2023-03-04T17:08:46;99572.20;;;4.00;65.16
51926;BME280;37952;51.938;15.480;2023-03-04T17:15:49;99579.98;;;3.92;64.95
51926;BME280;37952;51.938;15.480;2023-03-04T17:18:52;99581.51;;;3.89;65.08
51926;BME280;37952;51.938;15.480;2023-03-04T17:21:57;99581.21;;;3.87;65.66
51926;BME280;37952;51.938;15.480;2023-03-04T17:25:00;99588.23;;;3.90;66.26
51926;BME280;37952;51.938;15.480;2023-03-04T17:28:04;99593.14;;;3.95;66.53
51926;BME280;37952;51.938;15.480;2023-03-04T17:31:12;99594.45;;;3.97;66.70
51926;BME280;37952;51.938;15.480;2023-03-04T17:34:16;99598.02;;;3.95;66.85
51926;BME280;37952;51.938;15.480;2023-03-04T17:37:20;99605.89;;;3.94;66.97
51926;BME280;37952;51.938;15.480;2023-03-04T17:40:23;99607.12;;;3.89;67.12
51926;BME280;37952;51.938;15.480;2023-03-04T17:43:26;99612.31;;;3.85;67.29
51926;BME280;37952;51.938;15.480;2023-03-04T17:46:29;99619.73;;;3.78;67.69
51926;BME280;37952;51.938;15.480;2023-03-04T17:49:31;99624.21;;;3.69;67.92
51926;BME280;37952;51.938;15.480;2023-03-04T17:52:35;99624.54;;;3.64;68.05
51926;BME280;37952;51.938;15.480;2023-03-04T17:55:39;99622.54;;;3.61;68.04
51926;BME280;37952;51.938;15.480;2023-03-04T17:58:46;99624.31;;;3.60;68.16
51926;BME280;37952;51.938;15.480;2023-03-04T18:01:49;99629.91;;;3.60;68.03
51926;BME280;37952;51.938;15.480;2023-03-04T18:04:55;99624.92;;;3.57;68.17
51926;BME280;37952;51.938;15.480;2023-03-04T18:07:58;99626.56;;;3.56;68.30
51926;BME280;37952;51.938;15.480;2023-03-04T18:11:01;99624.45;;;3.51;68.18
51926;BME280;37952;51.938;15.480;2023-03-04T18:14:05;99630.55;;;3.51;68.28
51926;BME280;37952;51.938;15.480;2023-03-04T18:17:08;99633.77;;;3.48;67.94
51926;BME280;37952;51.938;15.480;2023-03-04T18:24:45;99634.13;;;3.43;67.64
51926;BME280;37952;51.938;15.480;2023-03-04T18:27:48;99632.83;;;3.40;67.21
51926;BME280;37952;51.938;15.480;2023-03-04T18:30:51;99627.39;;;3.36;67.27
51926;BME280;37952;51.938;15.480;2023-03-04T18:38:49;99643.97;;;3.18;66.57
51926;BME280;37952;51.938;15.480;2023-03-04T18:41:52;99643.67;;;3.17;66.90
51926;BME280;37952;51.938;15.480;2023-03-04T18:49:51;99641.59;;;3.11;66.85
51926;BME280;37952;51.938;15.480;2023-03-04T18:52:54;99639.75;;;3.08;66.85
51926;BME280;37952;51.938;15.480;2023-03-04T18:56:30;99639.86;;;3.05;66.94
51926;BME280;37952;51.938;15.480;2023-03-04T19:04:11;99652.48;;;2.91;66.36
51926;BME280;37952;51.938;15.480;2023-03-04T19:07:16;99651.45;;;2.91;66.88
51926;BME280;37952;51.938;15.480;2023-03-04T19:10:19;99654.27;;;2.89;66.62
51926;BME280;37952;51.938;15.480;2023-03-04T19:13:22;99660.34;;;2.84;66.54
51926;BME280;37952;51.938;15.480;2023-03-04T19:16:25;99659.20;;;2.76;66.40
51926;BME280;37952;51.938;15.480;2023-03-04T19:19:28;99660.54;;;2.72;66.53
51926;BME280;37952;51.938;15.480;2023-03-04T19:27:19;99654.57;;;2.73;67.31
51926;BME280;37952;51.938;15.480;2023-03-04T19:30:22;99661.48;;;2.81;67.12
51926;BME280;37952;51.938;15.480;2023-03-04T19:33:25;99667.74;;;2.81;66.94
51926;BME280;37952;51.938;15.480;2023-03-04T19:36:29;99661.16;;;2.80;66.93